Time;durP1;ratioP1;P1;durP2;ratioP2;P2;SDS_P1;SDS_P2;PMS_P1;PMS_P2;Temp;Humidity;BMP_temperature;BMP_pressure;BME280_temperature;BME280_humidity;BME280_pressure;Samples;Min_cycle;Max_cycle;Signal;HPM_P1;HPM_P2
2023/04/25 00:01:05;;;;;;;22.35;3.72;;;6.30;99.90;;;;;;5094423;27;20073;-46
2023/04/25 00:03:35;;;;;;;16.27;3.78;;;6.30;99.90;;;;;;5094619;27;20120;-46
2023/04/25 00:06:02;;;;;;;20.27;4.25;;;6.30;99.90;;;;;;5076997;28;20042;-46
2023/04/25 00:08:31;;;;;;;23.92;3.92;;;6.40;99.90;;;;;;5095679;27;20051;-47
2023/04/25 00:10:57;;;;;;;20.58;4.55;;;6.30;99.90;;;;;;5095222;27;20043;-47
2023/04/25 00:13:25;;;;;;;21.00;4.72;;;6.20;99.90;;;;;;5094670;27;20043;-45
2023/04/25 00:15:52;;;;;;;17.73;3.28;;;6.40;99.90;;;;;;5094235;27;20058;-46
2023/04/25 00:18:19;;;;;;;20.00;3.97;;;6.20;99.90;;;;;;5095461;27;20734;-50
2023/04/25 00:20:46;;;;;;;22.75;3.85;;;6.40;99.90;;;;;;5094965;27;20058;-46
2023/04/25 00:23:19;;;;;;;23.08;3.38;;;6.20;99.90;;;;;;5094896;27;20055;-47
2023/04/25 00:25:46;;;;;;;26.27;4.00;;;6.30;99.90;;;;;;5096021;27;20051;-45
2023/04/25 00:28:12;;;;;;;16.10;3.17;;;6.10;99.90;;;;;;5096736;27;20051;-47
2023/04/25 00:30:39;;;;;;;20.67;2.88;;;6.10;99.90;;;;;;5095015;27;20069;-47
2023/04/25 00:33:05;;;;;;;19.23;3.15;;;6.10;99.90;;;;;;5077459;27;20515;-49
2023/04/25 00:35:31;;;;;;;20.17;3.42;;;6.10;99.90;;;;;;5095263;27;20073;-45
2023/04/25 00:37:56;;;;;;;17.15;3.28;;;5.90;99.90;;;;;;5095165;28;20051;-47
2023/04/25 00:40:22;;;;;;;20.20;4.25;;;6.10;99.90;;;;;;5094777;27;20043;-45
2023/04/25 00:42:51;;;;;;;21.10;3.30;;;5.80;99.90;;;;;;5095635;27;20442;-46
2023/04/25 00:45:17;;;;;;;19.40;3.55;;;5.80;99.90;;;;;;5094464;27;20738;-49
2023/04/25 00:47:44;;;;;;;15.02;3.05;;;5.90;99.90;;;;;;5095636;27;20067;-45
2023/04/25 00:50:11;;;;;;;14.05;4.05;;;5.80;99.90;;;;;;5094668;27;20088;-45
2023/04/25 00:52:40;;;;;;;17.27;3.25;;;5.70;99.90;;;;;;5094831;27;20043;-45
2023/04/25 00:55:06;;;;;;;19.23;3.55;;;5.70;99.90;;;;;;5076247;28;20089;-46
2023/04/25 00:57:32;;;;;;;14.77;3.38;;;5.60;99.90;;;;;;5096197;27;20397;-46
2023/04/25 00:59:59;;;;;;;14.50;3.72;;;5.70;99.90;;;;;;5095273;27;20382;-45
2023/04/25 01:02:26;;;;;;;12.20;2.85;;;5.50;99.90;;;;;;5094190;27;20078;-46
2023/04/25 01:04:52;;;;;;;17.10;3.30;;;5.70;99.90;;;;;;5093404;27;20069;-45
2023/04/25 01:07:18;;;;;;;15.65;3.38;;;5.60;99.90;;;;;;5094110;28;20047;-48
2023/04/25 01:09:45;;;;;;;11.82;2.47;;;;;;;;;;5094630;27;20087;-45
2023/04/25 01:12:11;;;;;;;17.33;3.13;;;5.70;99.90;;;;;;5093998;27;20138;-46
2023/04/25 01:14:37;;;;;;;17.08;4.55;;;5.60;99.90;;;;;;5093399;27;20058;-46
2023/04/25 01:17:03;;;;;;;23.27;4.70;;;;;;;;;;5075154;27;20047;-49
2023/04/25 01:19:29;;;;;;;17.15;4.18;;;;;;;;;;5095388;27;20193;-45
2023/04/25 01:21:55;;;;;;;20.02;4.68;;;5.60;99.90;;;;;;5074419;28;20496;-47
2023/04/25 01:24:21;;;;;;;19.88;3.53;;;5.60;99.90;;;;;;5093226;28;20031;-45
2023/04/25 01:26:50;;;;;;;22.52;3.85;;;;;;;;;;5094590;27;20071;-46
2023/04/25 01:29:20;;;;;;;16.05;4.30;;;5.50;99.90;;;;;;5092972;27;20043;-48
2023/04/25 01:31:46;;;;;;;15.18;3.50;;;5.60;99.90;;;;;;5075801;28;20358;-46
2023/04/25 01:34:12;;;;;;;14.88;2.92;;;5.70;99.90;;;;;;5092868;28;20059;-46
2023/04/25 01:36:39;;;;;;;16.48;2.58;;;5.60;99.90;;;;;;5093858;27;20153;-46
2023/04/25 01:39:05;;;;;;;23.20;3.78;;;;;;;;;;5093557;28;20112;-47
2023/04/25 01:41:32;;;;;;;14.55;3.03;;;;;;;;;;5093458;28;20101;-47
2023/04/25 01:43:58;;;;;;;17.45;2.58;;;5.70;99.90;;;;;;5095257;27;20449;-46
2023/04/25 01:46:24;;;;;;;19.67;3.90;;;5.50;99.90;;;;;;5093620;27;20127;-46
2023/04/25 01:48:50;;;;;;;15.38;2.88;;;5.50;99.90;;;;;;5093346;28;20183;-46
2023/04/25 01:51:15;;;;;;;12.93;2.75;;;5.50;99.90;;;;;;5094170;27;20047;-46
2023/04/25 01:53:42;;;;;;;18.48;3.15;;;5.50;99.90;;;;;;5095282;28;20077;-48
2023/04/25 01:56:08;;;;;;;14.95;2.60;;;5.50;99.90;;;;;;5094515;28;20086;-48
2023/04/25 01:58:33;;;;;;;16.08;2.70;;;5.60;99.90;;;;;;5093675;28;20130;-47
2023/04/25 02:00:59;;;;;;;11.20;2.50;;;5.70;99.90;;;;;;5094122;27;20070;-48
2023/04/25 02:03:25;;;;;;;13.48;2.55;;;5.70;99.90;;;;;;5094004;28;20427;-47
2023/04/25 02:05:51;;;;;;;19.02;3.50;;;5.50;99.90;;;;;;5093591;28;20039;-48
2023/04/25 02:08:18;;;;;;;17.05;2.88;;;5.60;99.90;;;;;;5093495;28;20055;-51
2023/04/25 02:10:44;;;;;;;21.50;2.55;;;5.70;99.90;;;;;;5092903;28;20331;-46
2023/04/25 02:13:10;;;;;;;19.05;2.70;;;5.60;99.90;;;;;;5093330;28;20082;-49
2023/04/25 02:15:35;;;;;;;17.98;2.65;;;5.60;99.90;;;;;;5094807;28;20594;-50
2023/04/25 02:18:01;;;;;;;17.05;2.80;;;5.60;99.90;;;;;;5094363;28;20079;-45
2023/04/25 02:20:29;;;;;;;21.65;2.67;;;5.70;99.90;;;;;;5093142;28;20294;-46
2023/04/25 02:22:55;;;;;;;16.40;2.60;;;5.80;99.90;;;;;;5092825;28;20042;-47
2023/04/25 02:25:22;;;;;;;23.63;4.78;;;5.60;99.90;;;;;;5093507;28;20044;-49
2023/04/25 02:27:48;;;;;;;13.25;2.30;;;5.70;99.90;;;;;;5076805;28;20043;-49
2023/04/25 02:30:15;;;;;;;19.58;2.80;;;5.60;99.90;;;;;;5093034;28;20165;-47
2023/04/25 02:32:41;;;;;;;18.02;3.80;;;5.60;99.90;;;;;;5092385;28;20146;-47
2023/04/25 02:35:07;;;;;;;20.70;3.30;;;5.60;99.90;;;;;;5092892;28;21524;-46
2023/04/25 02:37:34;;;;;;;12.75;2.67;;;5.70;99.90;;;;;;5075259;28;20047;-45
2023/04/25 02:40:01;;;;;;;13.65;3.17;;;5.70;99.90;;;;;;5092429;28;20075;-48
2023/04/25 02:42:27;;;;;;;18.48;2.85;;;5.60;99.90;;;;;;5092436;28;20071;-47
2023/04/25 02:44:53;;;;;;;11.75;2.20;;;5.70;99.90;;;;;;5090826;28;20584;-47
2023/04/25 02:47:19;;;;;;;13.40;2.72;;;5.60;99.90;;;;;;5094029;28;20044;-51
2023/04/25 02:49:45;;;;;;;13.10;2.40;;;5.60;99.90;;;;;;5092036;28;20032;-51
2023/04/25 02:52:11;;;;;;;19.05;2.65;;;5.50;99.90;;;;;;5092456;28;20088;-49
2023/04/25 02:54:38;;;;;;;13.18;2.40;;;5.50;99.90;;;;;;5091950;28;20069;-47
2023/04/25 02:57:03;;;;;;;14.43;1.98;;;5.60;99.90;;;;;;5094875;28;20143;-50
2023/04/25 02:59:29;;;;;;;17.33;2.88;;;5.70;99.90;;;;;;5093082;28;20039;-50
2023/04/25 03:01:55;;;;;;;11.85;1.90;;;5.60;99.90;;;;;;5092289;28;20074;-49
2023/04/25 03:04:23;;;;;;;17.27;2.67;;;5.60;99.90;;;;;;5091126;28;20504;-48
2023/04/25 03:06:50;;;;;;;12.68;2.10;;;5.40;99.90;;;;;;5092117;28;20142;-49
2023/04/25 03:09:16;;;;;;;23.17;3.63;;;5.30;99.90;;;;;;5056693;28;20135;-51
2023/04/25 03:11:42;;;;;;;7.88;1.83;;;5.50;99.90;;;;;;5096749;27;20662;-48
2023/04/25 03:14:07;;;;;;;15.77;2.13;;;5.40;99.90;;;;;;5077558;28;20039;-46
2023/04/25 03:16:33;;;;;;;9.38;1.70;;;5.30;99.90;;;;;;5097849;27;20056;-47
2023/04/25 03:18:59;;;;;;;7.32;1.60;;;5.30;99.90;;;;;;5096797;27;20035;-48
2023/04/25 03:21:26;;;;;;;15.25;2.08;;;7.00;99.90;;;;;;5095393;27;20067;-50
2023/04/25 03:23:52;;;;;;;10.95;2.15;;;5.20;99.90;;;;;;5093985;27;20043;-47
2023/04/25 03:26:18;;;;;;;12.80;2.70;;;;;;;;;;5096250;27;20161;-50
2023/04/25 03:28:44;;;;;;;10.50;2.08;;;;;;;;;;5079922;28;20039;-48
2023/04/25 03:31:10;;;;;;;13.25;3.10;;;;;;;;;;5096396;28;20074;-48
2023/04/25 03:33:36;;;;;;;14.98;3.08;;;;;;;;;;5096976;27;20055;-48
2023/04/25 03:36:02;;;;;;;12.35;1.95;;;5.20;99.90;;;;;;5076827;28;20054;-48
2023/04/25 03:38:28;;;;;;;15.48;2.60;;;5.20;99.90;;;;;;5097395;28;20122;-50
2023/04/25 03:40:54;;;;;;;15.30;2.45;;;5.10;99.90;;;;;;5077289;28;20533;-50
2023/04/25 03:43:20;;;;;;;10.85;2.10;;;;;;;;;;5095914;27;20105;-45
2023/04/25 03:45:46;;;;;;;15.10;2.97;;;;;;;;;;5096399;27;20078;-50
2023/04/25 03:48:12;;;;;;;10.73;2.22;;;5.00;99.90;;;;;;5097543;27;20135;-47
2023/04/25 03:50:38;;;;;;;10.82;1.95;;;;;;;;;;5095456;27;20469;-50
2023/04/25 03:53:04;;;;;;;11.45;2.33;;;4.80;99.90;;;;;;5095603;27;20093;-47
2023/04/25 03:55:30;;;;;;;13.80;2.00;;;;;;;;;;5096490;27;20088;-45
2023/04/25 03:57:57;;;;;;;15.07;2.38;;;4.60;99.90;;;;;;5097415;27;20149;-47
2023/04/25 04:00:24;;;;;;;13.55;1.98;;;4.80;99.90;;;;;;5096970;27;20067;-54
2023/04/25 04:02:50;;;;;;;11.88;1.60;;;4.80;99.90;;;;;;5096227;27;20258;-48
2023/04/25 04:05:15;;;;;;;20.13;2.20;;;4.80;99.90;;;;;;5095577;27;20043;-50
2023/04/25 04:07:42;;;;;;;16.55;2.35;;;4.80;99.90;;;;;;5095262;27;20179;-49
2023/04/25 04:10:09;;;;;;;11.80;1.73;;;4.80;99.90;;;;;;5095540;27;20553;-49
2023/04/25 04:12:36;;;;;;;11.85;1.85;;;4.70;99.90;;;;;;5095503;27;20138;-49
2023/04/25 04:15:03;;;;;;;16.30;2.10;;;4.90;99.90;;;;;;5094982;27;20082;-51
2023/04/25 04:17:30;;;;;;;13.10;3.28;;;3.20;99.90;;;;;;5095008;27;20036;-47
2023/04/25 04:19:56;;;;;;;9.60;2.10;;;4.60;99.90;;;;;;5094377;27;21320;-49
2023/04/25 04:22:22;;;;;;;19.13;3.33;;;;;;;;;;5095105;27;20100;-47
2023/04/25 04:24:49;;;;;;;13.35;2.13;;;;;;;;;;5094804;27;20496;-47
2023/04/25 04:27:19;;;;;;;9.45;2.00;;;4.40;99.90;;;;;;5095939;27;20385;-46
2023/04/25 04:29:46;;;;;;;12.10;3.03;;;4.50;99.90;;;;;;5094117;27;20054;-49
2023/04/25 04:32:13;;;;;;;11.02;1.83;;;5.40;99.90;;;;;;5095081;27;20381;-45
2023/04/25 04:34:39;;;;;;;11.40;2.30;;;4.40;99.90;;;;;;5096170;27;20044;-47
2023/04/25 04:37:06;;;;;;;10.05;1.92;;;;;;;;;;5093490;27;20389;-48
2023/04/25 04:39:33;;;;;;;16.35;3.33;;;;;;;;;;5094248;28;20773;-49
2023/04/25 04:42:01;;;;;;;12.45;2.50;;;;;;;;;;5076267;27;20040;-53
2023/04/25 04:44:28;;;;;;;11.32;2.25;;;;;;;;;;5094783;27;20036;-48
2023/04/25 04:46:54;;;;;;;10.68;2.20;;;;;;;;;;5093463;28;20123;-47
2023/04/25 04:49:21;;;;;;;13.85;2.42;;;4.30;99.90;;;;;;5093879;27;20414;-46
2023/04/25 04:51:47;;;;;;;11.95;2.03;;;;;;;;;;5094274;27;20048;-46
2023/04/25 04:54:13;;;;;;;16.02;2.33;;;4.40;99.90;;;;;;5092921;27;20036;-49
2023/04/25 04:56:40;;;;;;;17.05;3.22;;;;;;;;;;5094233;27;20054;-47
2023/04/25 04:59:05;;;;;;;16.25;2.67;;;4.60;99.90;;;;;;5095089;27;20043;-46
2023/04/25 05:01:31;;;;;;;10.95;2.13;;;4.80;99.90;;;;;;5093623;27;20388;-48
2023/04/25 05:04:00;;;;;;;12.10;2.03;;;;;;;;;;5092566;27;20130;-47
2023/04/25 05:06:26;;;;;;;16.08;2.25;;;;;;;;;;5093136;27;20613;-46
2023/04/25 05:08:52;;;;;;;13.60;3.08;;;4.90;99.90;;;;;;5093749;27;20047;-46
2023/04/25 05:11:19;;;;;;;15.70;2.08;;;4.90;99.90;;;;;;5073914;27;20652;-47
2023/04/25 05:13:45;;;;;;;11.77;2.72;;;4.90;99.90;;;;;;5090945;27;20103;-46
2023/04/25 05:16:11;;;;;;;16.52;2.30;;;;;;;;;;5092987;28;20077;-48
2023/04/25 05:18:38;;;;;;;14.25;2.25;;;;;;;;;;5094092;27;20047;-46
2023/04/25 05:21:03;;;;;;;15.27;2.20;;;5.50;99.90;;;;;;5074588;28;20114;-50
2023/04/25 05:23:31;;;;;;;14.18;2.60;;;5.70;99.90;;;;;;5074338;28;20034;-49
2023/04/25 05:25:57;;;;;;;11.45;2.35;;;5.90;99.90;;;;;;5092276;27;20054;-46
2023/04/25 05:28:23;;;;;;;12.15;2.00;;;6.20;99.90;;;;;;5075580;28;20043;-49
2023/04/25 05:30:49;;;;;;;12.35;2.70;;;6.40;99.90;;;;;;5092469;28;20529;-50
2023/04/25 05:33:15;;;;;;;7.10;2.05;;;6.40;99.90;;;;;;5092210;28;20032;-46
2023/04/25 05:35:41;;;;;;;14.57;2.47;;;6.90;99.90;;;;;;5092544;28;20563;-46
2023/04/25 05:38:07;;;;;;;12.25;2.33;;;7.20;99.90;;;;;;5073322;28;20054;-49
2023/04/25 05:40:33;;;;;;;14.77;3.80;;;7.60;99.90;;;;;;5091319;27;20031;-46
2023/04/25 05:42:58;;;;;;;13.05;2.22;;;8.00;99.90;;;;;;5094151;28;20061;-46
2023/04/25 05:45:24;;;;;;;13.95;2.50;;;8.30;99.90;;;;;;5074489;28;20051;-47
2023/04/25 05:47:50;;;;;;;12.90;2.10;;;8.60;99.90;;;;;;5093486;28;20044;-48
2023/04/25 05:50:16;;;;;;;13.18;2.78;;;6.80;99.90;;;;;;5091107;28;20054;-49
2023/04/25 05:52:41;;;;;;;8.52;1.88;;;9.10;99.90;;;;;;5093465;27;20331;-46
2023/04/25 05:55:08;;;;;;;11.20;2.38;;;9.00;99.90;;;;;;5092042;27;20464;-50
2023/04/25 05:57:34;;;;;;;12.07;1.98;;;9.20;99.90;;;;;;5093040;28;20051;-47
2023/04/25 06:00:00;;;;;;;11.55;1.88;;;9.90;99.90;;;;;;5093753;28;20043;-48
2023/04/25 06:02:26;;;;;;;14.30;2.65;;;10.60;99.90;;;;;;5093039;28;20496;-48
2023/04/25 06:04:52;;;;;;;9.70;1.58;;;10.90;99.90;;;;;;5091329;28;20345;-46
2023/04/25 06:07:19;;;;;;;8.35;1.40;;;10.40;99.90;;;;;;5091432;28;20488;-47
2023/04/25 06:09:45;;;;;;;7.72;1.40;;;10.00;99.90;;;;;;5092100;28;21040;-46
2023/04/25 06:12:11;;;;;;;11.90;2.22;;;10.10;99.90;;;;;;5093468;28;20067;-48
2023/04/25 06:14:37;;;;;;;12.80;2.03;;;10.00;99.90;;;;;;5093156;28;20113;-46
2023/04/25 06:17:08;;;;;;;9.68;1.42;;;9.60;99.90;;;;;;5093415;28;20040;-48
2023/04/25 06:19:35;;;;;;;6.50;1.50;;;9.20;99.90;;;;;;5092999;28;20048;-47
2023/04/25 06:22:01;;;;;;;12.07;1.77;;;9.10;99.90;;;;;;5092805;28;20058;-46
2023/04/25 06:24:27;;;;;;;11.25;1.95;;;9.10;99.90;;;;;;5092668;28;20211;-46
2023/04/25 06:26:53;;;;;;;10.43;1.70;;;8.20;99.90;;;;;;5092005;28;20643;-46
2023/04/25 06:29:19;;;;;;;7.55;1.38;;;9.80;99.90;;;;;;5093601;28;20547;-46
2023/04/25 06:31:45;;;;;;;7.90;1.08;;;8.20;99.90;;;;;;5075012;28;20051;-47
2023/04/25 06:34:11;;;;;;;9.23;1.65;;;8.10;99.90;;;;;;5093019;28;20404;-47
2023/04/25 06:36:37;;;;;;;7.57;1.27;;;8.50;99.90;;;;;;5092135;28;20154;-46
2023/04/25 06:39:05;;;;;;;6.97;1.40;;;9.10;99.90;;;;;;5091729;28;20051;-49
2023/04/25 06:41:31;;;;;;;12.98;2.58;;;9.70;99.90;;;;;;5091960;28;20051;-48
2023/04/25 06:43:57;;;;;;;5.70;1.58;;;10.60;99.90;;;;;;5094326;28;20377;-47
2023/04/25 06:46:22;;;;;;;4.88;0.90;;;11.70;99.90;;;;;;5097593;27;20096;-46
2023/04/25 06:48:48;;;;;;;9.75;1.58;;;12.30;99.90;;;;;;5096157;28;20067;-50
2023/04/25 06:51:14;;;;;;;10.25;1.90;;;13.40;99.90;;;;;;5097050;27;20048;-46
2023/04/25 06:53:40;;;;;;;5.88;1.40;;;13.30;99.90;;;;;;5097264;27;20364;-47
2023/04/25 06:56:06;;;;;;;7.95;1.35;;;13.70;99.90;;;;;;5078354;28;20055;-46
2023/04/25 06:58:31;;;;;;;6.57;1.48;;;14.70;99.90;;;;;;5098124;27;20381;-46
2023/04/25 07:01:00;;;;;;;9.10;2.13;;;15.50;99.90;;;;;;5096149;27;20035;-47
2023/04/25 07:03:26;;;;;;;9.40;1.65;;;15.70;99.90;;;;;;5096573;28;20050;-47
2023/04/25 07:05:51;;;;;;;8.20;1.60;;;16.30;99.90;;;;;;5097217;27;20400;-48
2023/04/25 07:08:17;;;;;;;8.88;1.77;;;16.60;99.90;;;;;;5096289;27;20416;-47
2023/04/25 07:10:43;;;;;;;9.02;1.88;;;16.50;99.90;;;;;;5095401;27;20043;-46
2023/04/25 07:13:09;;;;;;;11.00;2.47;;;17.00;99.90;;;;;;5078276;28;20407;-47
2023/04/25 07:15:34;;;;;;;9.05;2.08;;;17.20;99.90;;;;;;5077911;27;20047;-49
2023/04/25 07:18:00;;;;;;;8.40;1.45;;;18.30;99.90;;;;;;5096186;27;20659;-51
2023/04/25 07:20:27;;;;;;;11.35;1.95;;;18.50;99.90;;;;;;5095053;27;20048;-49
2023/04/25 07:22:53;;;;;;;9.10;1.63;;;17.80;99.90;;;;;;5096355;27;20051;-49
2023/04/25 07:25:19;;;;;;;6.65;1.30;;;16.40;99.90;;;;;;5095147;27;20046;-49
2023/04/25 07:27:45;;;;;;;7.75;1.58;;;15.10;99.90;;;;;;5096315;27;20048;-52
2023/04/25 07:30:12;;;;;;;6.47;2.05;;;14.20;99.90;;;;;;5095582;27;20621;-47
2023/04/25 07:32:38;;;;;;;4.97;1.10;;;12.90;99.90;;;;;;5095398;27;20059;-48
2023/04/25 07:35:04;;;;;;;4.03;1.20;;;12.20;99.90;;;;;;5076168;28;20407;-47
2023/04/25 07:37:30;;;;;;;8.60;1.25;;;11.60;99.90;;;;;;5095357;27;20496;-48
2023/04/25 07:39:56;;;;;;;6.32;1.05;;;10.90;99.90;;;;;;5095500;27;20113;-48
2023/04/25 07:42:21;;;;;;;7.95;1.23;;;10.50;99.90;;;;;;5095778;27;20770;-47
2023/04/25 07:44:47;;;;;;;4.70;1.08;;;10.00;99.90;;;;;;5095210;27;20058;-47
2023/04/25 07:47:13;;;;;;;6.07;1.88;;;10.20;99.90;;;;;;5094089;27;20039;-47
2023/04/25 07:49:39;;;;;;;9.35;1.30;;;9.70;99.90;;;;;;5095142;27;20079;-49
2023/04/25 07:52:06;;;;;;;10.30;1.10;;;10.00;99.90;;;;;;5096028;27;20287;-48
2023/04/25 07:54:32;;;;;;;10.80;1.48;;;10.00;99.90;;;;;;5094597;27;20047;-48
2023/04/25 07:56:58;;;;;;;10.23;1.23;;;10.70;99.90;;;;;;5094361;27;20058;-50
2023/04/25 07:59:24;;;;;;;7.78;1.52;;;11.30;99.90;;;;;;5078849;27;20454;-49
2023/04/25 08:01:50;;;;;;;7.80;1.45;;;11.40;99.90;;;;;;5095557;27;20072;-52
2023/04/25 08:04:16;;;;;;;11.40;1.50;;;11.40;99.90;;;;;;5094727;27;20067;-53
2023/04/25 08:06:42;;;;;;;7.18;1.15;;;11.50;99.90;;;;;;5095548;27;20791;-52
2023/04/25 08:09:11;;;;;;;5.57;1.25;;;11.60;99.90;;;;;;5095400;27;20148;-51
2023/04/25 08:11:37;;;;;;;11.18;1.50;;;11.60;99.90;;;;;;5096335;27;20150;-52
2023/04/25 08:14:03;;;;;;;10.15;1.88;;;11.50;99.90;;;;;;5096387;27;20039;-52
2023/04/25 08:16:29;;;;;;;9.82;2.08;;;11.00;99.90;;;;;;5096075;27;20404;-52
2023/04/25 08:18:55;;;;;;;7.05;1.27;;;10.80;99.90;;;;;;5094435;27;20040;-54
2023/04/25 08:21:21;;;;;;;7.10;1.30;;;10.70;99.90;;;;;;5097168;27;20466;-53
2023/04/25 08:23:46;;;;;;;6.38;1.13;;;10.30;99.90;;;;;;5095006;27;20083;-52
2023/04/25 08:26:12;;;;;;;9.63;1.15;;;10.00;99.90;;;;;;5094858;28;20497;-52
2023/04/25 08:28:38;;;;;;;5.80;1.13;;;10.50;99.90;;;;;;5094992;27;20057;-50
2023/04/25 08:31:04;;;;;;;8.73;0.90;;;10.80;99.90;;;;;;5095288;27;20051;-52
2023/04/25 08:33:31;;;;;;;4.70;0.90;;;10.60;99.90;;;;;;5075426;27;20046;-52
2023/04/25 08:35:57;;;;;;;8.55;0.95;;;10.10;99.90;;;;;;5074960;27;20565;-52
2023/04/25 08:38:23;;;;;;;7.07;1.30;;;9.60;99.90;;;;;;5093092;27;20661;-51
2023/04/25 08:40:51;;;;;;;4.35;1.00;;;8.90;99.90;;;;;;5094648;27;20035;-51
2023/04/25 08:43:19;;;;;;;4.55;0.95;;;10.40;99.90;;;;;;5094822;28;20042;-53
2023/04/25 08:45:46;;;;;;;4.95;1.25;;;8.20;99.90;;;;;;5093321;28;20235;-51
2023/04/25 08:48:14;;;;;;;6.88;1.10;;;8.60;99.90;;;;;;5092535;27;20057;-51
2023/04/25 08:51:00;;;;;;;4.75;1.10;;;9.20;99.90;;;;;;5092755;27;20043;-50
2023/04/25 08:53:32;;;;;;;5.22;0.98;;;9.80;99.90;;;;;;5094556;27;20591;-47
2023/04/25 08:56:01;;;;;;;4.40;1.10;;;10.20;99.90;;;;;;5093220;27;20515;-51
2023/04/25 08:58:28;;;;;;;5.32;1.10;;;10.70;99.90;;;;;;5076252;27;20055;-50
2023/04/25 09:00:54;;;;;;;10.00;1.85;;;10.70;99.90;;;;;;5094892;27;20079;-50
2023/04/25 09:03:20;;;;;;;8.25;1.63;;;11.00;99.90;;;;;;5092262;27;20064;-49
2023/04/25 09:05:46;;;;;;;5.45;1.10;;;11.50;99.90;;;;;;5073205;28;20073;-51
2023/04/25 09:08:12;;;;;;;6.93;1.17;;;11.90;99.90;;;;;;5093709;28;20432;-48
2023/04/25 09:10:38;;;;;;;5.85;1.45;;;12.10;99.90;;;;;;5073731;28;20373;-51
2023/04/25 09:13:12;;;;;;;6.78;1.25;;;12.00;99.90;;;;;;5073660;28;20039;-50
2023/04/25 09:15:52;;;;;;;5.70;1.17;;;12.50;99.90;;;;;;5092582;27;21005;-50
2023/04/25 09:18:25;;;;;;;9.38;1.30;;;13.00;99.90;;;;;;5093792;28;20036;-50
2023/04/25 09:20:53;;;;;;;10.07;1.63;;;12.70;99.90;;;;;;5093450;27;21086;-51
2023/04/25 09:23:21;;;;;;;10.32;1.80;;;12.20;99.90;;;;;;5093461;27;20043;-50
2023/04/25 09:25:51;;;;;;;7.95;1.83;;;11.40;99.90;;;;;;5092899;27;20075;-51
2023/04/25 09:28:24;;;;;;;13.00;2.35;;;10.40;99.90;;;;;;5091690;27;20065;-49
2023/04/25 09:30:56;;;;;;;14.65;2.88;;;9.60;99.90;;;;;;5093548;27;20559;-51
2023/04/25 09:33:30;;;;;;;10.47;2.53;;;9.20;99.90;;;;;;5092659;27;20050;-50
2023/04/25 09:36:07;;;;;;;10.85;2.33;;;9.20;99.90;;;;;;5093038;28;20032;-48
2023/04/25 09:38:46;;;;;;;10.75;1.70;;;7.80;99.90;;;;;;5093968;27;20113;-49
2023/04/25 09:41:12;;;;;;;10.38;1.42;;;9.70;99.90;;;;;;5092556;28;20047;-50
2023/04/25 09:43:39;;;;;;;9.70;1.80;;;10.10;99.90;;;;;;5093411;27;20043;-51
2023/04/25 09:46:11;;;;;;;8.90;1.40;;;10.40;99.90;;;;;;5094481;27;20031;-50
2023/04/25 09:48:37;;;;;;;7.20;1.70;;;10.80;99.90;;;;;;5093231;27;20039;-51
2023/04/25 09:51:11;;;;;;;11.57;1.67;;;10.70;99.90;;;;;;5092517;27;20040;-47
2023/04/25 09:53:42;;;;;;;6.95;1.60;;;11.00;99.90;;;;;;5093130;27;20773;-50
2023/04/25 09:56:10;;;;;;;8.27;1.40;;;11.20;99.90;;;;;;5092565;28;20039;-53
2023/04/25 09:58:37;;;;;;;7.00;1.40;;;11.30;99.90;;;;;;5091717;28;20047;-52
2023/04/25 10:01:06;;;;;;;8.32;1.77;;;11.20;99.90;;;;;;5093098;28;20048;-49
2023/04/25 10:03:33;;;;;;;14.40;1.80;;;11.40;99.90;;;;;;5091607;28;20569;-52
2023/04/25 10:06:04;;;;;;;7.75;2.05;;;11.60;99.90;;;;;;5091986;28;20115;-49
2023/04/25 10:08:36;;;;;;;10.30;1.70;;;11.30;99.90;;;;;;5057681;28;20672;-51
2023/04/25 10:11:03;;;;;;;;;;;10.90;99.90;;;;;;5091880;28;20599;-48
2023/04/25 10:13:32;;;;;;;7.18;1.73;;;11.00;99.90;;;;;;5092915;28;19937;-49
2023/04/25 10:16:00;;;;;;;9.77;1.40;;;11.20;99.90;;;;;;5092856;28;20524;-51
2023/04/25 10:18:30;;;;;;;6.85;1.30;;;11.40;99.90;;;;;;5093596;28;20111;-52
2023/04/25 10:21:04;;;;;;;9.50;1.42;;;11.60;99.90;;;;;;5075577;27;20044;-50
2023/04/25 10:23:31;;;;;;;5.28;1.15;;;11.50;99.90;;;;;;5097224;27;20051;-51
2023/04/25 10:25:58;;;;;;;6.65;1.48;;;11.40;99.90;;;;;;5095584;27;20380;-52
2023/04/25 10:28:24;;;;;;;8.88;1.90;;;11.00;99.90;;;;;;5096412;27;20039;-52
2023/04/25 10:31:04;;;;;;;8.82;1.50;;;10.90;99.90;;;;;;5097436;27;20050;-48
2023/04/25 10:33:38;;;;;;;7.80;1.40;;;10.70;99.90;;;;;;5095436;27;20044;-52
2023/04/25 10:36:15;;;;;;;9.90;1.88;;;10.70;99.90;;;;;;5095800;27;20416;-52
2023/04/25 10:38:45;;;;;;;7.53;1.45;;;10.80;99.90;;;;;;5094560;27;20404;-49
2023/04/25 10:41:12;;;;;;;9.35;1.95;;;10.70;99.90;;;;;;5096142;27;21099;-53
2023/04/25 10:43:42;;;;;;;6.88;1.55;;;10.70;99.90;;;;;;5097396;27;20496;-52
2023/04/25 10:46:29;;;;;;;8.23;1.80;;;10.40;99.90;;;;;;5096913;27;20035;-51
2023/04/25 10:48:57;;;;;;;9.65;1.92;;;10.10;99.90;;;;;;5094666;27;20036;-51
2023/04/25 10:51:25;;;;;;;7.78;1.75;;;9.70;99.90;;;;;;5092079;27;20430;-51
2023/04/25 10:54:06;;;;;;;8.95;1.70;;;9.40;99.90;;;;;;5093936;27;20052;-53
2023/04/25 10:56:37;;;;;;;9.00;1.98;;;9.10;99.90;;;;;;5096293;27;20234;-49
2023/04/25 10:59:18;;;;;;;11.18;1.70;;;9.30;99.90;;;;;;5095014;28;20047;-51
2023/04/25 11:01:45;;;;;;;7.72;1.67;;;9.70;99.90;;;;;;5077471;28;20071;-48
2023/04/25 11:04:26;;;;;;;9.27;1.80;;;10.20;99.90;;;;;;5094420;27;20039;-51
2023/04/25 11:07:04;;;;;;;7.90;1.35;;;10.30;99.90;;;;;;5078140;28;20048;-50
2023/04/25 11:09:30;;;;;;;11.63;1.58;;;10.40;99.90;;;;;;5094877;28;20560;-49
2023/04/25 11:11:58;;;;;;;7.50;1.58;;;10.80;99.90;;;;;;5077545;28;20055;-49
2023/04/25 11:14:24;;;;;;;8.50;1.80;;;10.80;99.90;;;;;;5096241;27;20051;-52
2023/04/25 11:16:55;;;;;;;7.03;1.88;;;11.10;99.90;;;;;;5095243;27;20129;-51
2023/04/25 11:19:21;;;;;;;9.70;2.28;;;11.30;99.90;;;;;;5094568;27;20044;-49
2023/04/25 11:21:47;;;;;;;7.40;1.88;;;11.40;99.90;;;;;;5076214;28;20100;-50
2023/04/25 11:24:13;;;;;;;3.70;1.00;;;11.00;99.90;;;;;;5076688;28;20474;-53
2023/04/25 11:26:41;;;;;;;7.82;1.13;;;11.30;99.90;;;;;;5077876;28;20051;-52
2023/04/25 11:29:07;;;;;;;4.00;1.15;;;11.10;99.90;;;;;;5095164;27;20470;-50
2023/04/25 11:31:33;;;;;;;5.53;1.20;;;9.50;99.90;;;;;;5094455;28;20035;-52
2023/04/25 11:33:59;;;;;;;5.57;1.27;;;10.50;99.90;;;;;;5095032;27;20039;-49
2023/04/25 11:36:26;;;;;;;8.52;1.63;;;10.50;99.90;;;;;;5094643;27;20065;-51
2023/04/25 11:38:53;;;;;;;7.20;1.30;;;10.60;99.90;;;;;;5092517;27;20062;-50
2023/04/25 11:41:22;;;;;;;7.82;1.50;;;10.90;99.90;;;;;;5093396;27;20039;-47
2023/04/25 11:43:49;;;;;;;10.85;1.60;;;11.20;99.90;;;;;;5093956;27;20051;-51
2023/04/25 11:46:15;;;;;;;6.45;1.65;;;11.40;99.90;;;;;;5093428;27;20078;-50
2023/04/25 11:48:42;;;;;;;5.10;1.50;;;11.60;99.90;;;;;;5092715;27;20101;-51
2023/04/25 11:51:08;;;;;;;11.07;1.58;;;12.10;99.90;;;;;;5093917;27;20506;-50
2023/04/25 11:53:35;;;;;;;10.20;1.63;;;12.00;99.90;;;;;;5093023;27;20070;-52
2023/04/25 11:56:01;;;;;;;10.20;1.83;;;11.90;99.90;;;;;;5094673;27;20043;-49
2023/04/25 11:58:27;;;;;;;8.25;1.65;;;11.50;99.90;;;;;;5093885;27;20039;-51
2023/04/25 12:00:53;;;;;;;10.43;1.75;;;11.30;99.90;;;;;;5096687;27;20691;-47
2023/04/25 12:03:20;;;;;;;8.32;1.20;;;10.80;99.90;;;;;;5094875;27;20597;-49
2023/04/25 12:05:46;;;;;;;10.35;1.63;;;11.20;99.90;;;;;;5093705;27;20553;-48
2023/04/25 12:08:12;;;;;;;8.15;1.30;;;10.80;99.90;;;;;;5094587;27;20039;-51
2023/04/25 12:10:40;;;;;;;10.88;1.83;;;10.90;99.90;;;;;;5094898;27;20086;-48
2023/04/25 12:13:25;;;;;;;12.20;2.00;;;11.10;99.90;;;;;;5094110;27;20047;-51
2023/04/25 12:15:53;;;;;;;9.68;1.73;;;11.40;99.90;;;;;;5075414;28;20138;-47
2023/04/25 12:18:21;;;;;;;10.95;2.65;;;12.10;99.90;;;;;;5093979;27;24152;-52
2023/04/25 12:20:47;;;;;;;9.15;1.60;;;12.10;99.90;;;;;;5094620;28;20059;-50
2023/04/25 12:23:12;;;;;;;9.23;1.48;;;11.60;99.90;;;;;;5075538;28;20430;-47
2023/04/25 12:25:44;;;;;;;11.38;1.65;;;11.20;99.90;;;;;;5093258;27;20126;-47
2023/04/25 12:28:21;;;;;;;7.95;1.30;;;10.70;99.90;;;;;;5092629;27;20594;-47
2023/04/25 12:30:57;;;;;;;10.02;1.52;;;10.60;99.90;;;;;;5096234;27;20134;-48
2023/04/25 12:33:27;;;;;;;13.35;2.90;;;10.40;99.90;;;;;;5091993;27;20054;-47
2023/04/25 12:35:54;;;;;;;10.65;1.50;;;10.00;99.90;;;;;;5094186;27;20067;-47
2023/04/25 12:38:29;;;;;;;10.45;1.75;;;10.10;99.90;;;;;;5093668;28;20040;-50
2023/04/25 12:40:56;;;;;;;11.40;1.50;;;10.20;99.90;;;;;;5075397;28;20040;-46
2023/04/25 12:43:22;;;;;;;9.02;1.60;;;10.80;99.90;;;;;;5092342;27;20146;-48
2023/04/25 12:45:53;;;;;;;12.70;1.70;;;10.70;99.90;;;;;;5093651;27;20180;-49
2023/04/25 12:48:19;;;;;;;6.63;1.70;;;11.00;99.90;;;;;;5092725;27;20356;-48
2023/04/25 12:50:48;;;;;;;11.05;1.50;;;10.70;99.90;;;;;;5074516;28;20058;-47
2023/04/25 12:53:15;;;;;;;10.45;1.73;;;10.60;99.90;;;;;;5094147;27;20142;-47
2023/04/25 12:55:41;;;;;;;5.60;1.10;;;10.00;99.90;;;;;;5092669;27;20048;-48